Time;durP1;ratioP1;P1;durP2;ratioP2;P2;SDS_P1;SDS_P2;PMS_P1;PMS_P2;Temp;Humidity;BMP_temperature;BMP_pressure;BME280_temperature;BME280_humidity;BME280_pressure;Samples;Min_cycle;Max_cycle;Signal;HPM_P1;HPM_P2
2023/12/13 00:00:37;;;;;;;20.60;10.88;;;;;;;4.49;81.31;93725.59;5064429;28;20032;-76
2023/12/13 00:03:05;;;;;;;23.58;10.50;;;;;;;4.47;81.92;93725.09;5065295;28;20130;-78
2023/12/13 00:05:30;;;;;;;29.98;11.90;;;;;;;4.51;82.36;93726.09;5065588;28;20029;-78
2023/12/13 00:07:56;;;;;;;26.02;12.02;;;;;;;4.50;83.14;93723.72;5065381;28;20049;-78
2023/12/13 00:10:21;;;;;;;30.45;14.05;;;;;;;4.50;83.64;93708.72;5065448;28;20021;-77
2023/12/13 00:12:47;;;;;;;24.05;10.93;;;;;;;4.43;83.93;93710.88;5064205;28;20208;-76
2023/12/13 00:15:12;;;;;;;22.60;10.90;;;;;;;4.38;84.21;93708.28;5065428;28;20094;-79
2023/12/13 00:17:38;;;;;;;24.88;11.30;;;;;;;4.40;84.22;93720.13;5065422;28;20037;-77
2023/12/13 00:20:05;;;;;;;25.92;11.55;;;;;;;4.39;84.17;93713.28;5065357;28;20291;-77
2023/12/13 00:22:32;;;;;;;30.90;13.85;;;;;;;4.45;83.97;93703.47;5065336;28;20026;-78
2023/12/13 00:24:57;;;;;;;27.63;11.05;;;;;;;4.53;83.42;93715.28;5065162;28;20024;-78
2023/12/13 00:27:23;;;;;;;27.42;10.80;;;;;;;4.49;83.05;93707.13;5065115;28;20029;-78
2023/12/13 00:29:48;;;;;;;26.80;11.88;;;;;;;4.52;82.87;93711.84;5065029;28;20226;-78
2023/12/13 00:32:14;;;;;;;25.60;11.77;;;;;;;4.49;82.46;93711.63;5064951;28;20040;-77
2023/12/13 00:34:39;;;;;;;23.27;9.85;;;;;;;4.50;82.31;93714.00;5065134;28;20050;-77
2023/12/13 00:37:05;;;;;;;20.80;9.80;;;;;;;4.52;81.31;93703.94;5064991;28;20084;-77
2023/12/13 00:39:32;;;;;;;19.23;9.52;;;;;;;4.48;81.75;93700.28;5063828;28;20115;-77
2023/12/13 00:41:57;;;;;;;22.63;10.80;;;;;;;4.44;81.72;93693.97;5063482;28;20035;-77
2023/12/13 00:44:23;;;;;;;23.02;11.18;;;;;;;4.43;82.17;93692.41;5064846;28;20021;-78
2023/12/13 00:46:48;;;;;;;20.90;10.18;;;;;;;4.46;82.35;93694.50;5064547;28;20102;-82
2023/12/13 00:49:14;;;;;;;20.70;9.98;;;;;;;4.53;82.43;93694.94;5064791;28;20028;-81
2023/12/13 00:51:40;;;;;;;17.20;8.73;;;;;;;4.52;82.47;93698.66;5065026;28;20235;-80
2023/12/13 00:54:05;;;;;;;18.95;9.20;;;;;;;4.56;82.46;93685.66;5064718;28;20058;-80
2023/12/13 00:56:31;;;;;;;26.67;10.57;;;;;;;4.60;82.10;93676.16;5064613;28;20136;-80
2023/12/13 00:58:57;;;;;;;22.63;10.27;;;;;;;4.61;81.85;93686.41;5064922;28;20037;-80
2023/12/13 01:01:24;;;;;;;19.92;9.07;;;;;;;4.59;82.28;93670.06;5064854;28;20051;-81
2023/12/13 01:03:49;;;;;;;18.80;8.48;;;;;;;4.62;82.10;93664.25;5064361;28;20100;-80
2023/12/13 01:06:15;;;;;;;21.02;8.93;;;;;;;4.66;82.00;93667.13;5064169;28;20066;-80
2023/12/13 01:08:40;;;;;;;17.20;7.85;;;;;;;4.67;81.59;93655.47;5064591;28;20025;-80
2023/12/13 01:11:10;;;;;;;15.68;7.28;;;;;;;4.68;81.20;93653.59;5064577;28;20211;-81
2023/12/13 01:13:36;;;;;;;16.73;8.18;;;;;;;4.66;80.98;93648.63;5064344;28;20147;-81
2023/12/13 01:16:01;;;;;;;21.60;9.15;;;;;;;4.66;81.20;93637.25;5064771;28;20013;-81
2023/12/13 01:18:27;;;;;;;18.77;8.48;;;;;;;4.71;81.16;93639.88;5064490;28;20330;-79
2023/12/13 01:20:52;;;;;;;20.85;8.75;;;;;;;4.61;81.43;93625.69;5064425;28;20362;-79
2023/12/13 01:23:18;;;;;;;20.75;9.02;;;;;;;4.59;81.98;93627.81;5064400;28;20056;-79
2023/12/13 01:25:43;;;;;;;15.57;8.13;;;;;;;4.63;82.43;93623.56;5064388;28;20025;-81
2023/12/13 01:28:09;;;;;;;18.02;8.57;;;;;;;4.61;81.84;93630.97;5064371;28;20052;-80
2023/12/13 01:30:34;;;;;;;18.75;9.43;;;;;;;4.60;81.80;93616.22;5063964;28;20044;-80
2023/12/13 01:32:59;;;;;;;17.10;9.27;;;;;;;4.60;82.13;93621.50;5063748;28;20028;-79
2023/12/13 01:35:25;;;;;;;22.70;9.93;;;;;;;4.62;81.91;93622.00;5063865;28;20032;-80
2023/12/13 01:37:50;;;;;;;21.33;9.75;;;;;;;4.66;81.59;93635.44;5063741;28;20036;-81
2023/12/13 01:40:16;;;;;;;16.63;7.90;;;;;;;4.49;82.29;93650.91;5063869;28;20052;-82
2023/12/13 01:42:41;;;;;;;13.98;7.07;;;;;;;4.40;82.59;93650.75;5062334;28;20025;-82
2023/12/13 01:45:08;;;;;;;16.13;7.15;;;;;;;4.40;83.14;93648.09;5063507;28;20021;-82
2023/12/13 01:47:34;;;;;;;14.73;7.38;;;;;;;4.29;83.51;93652.66;5063695;28;20033;-82
2023/12/13 01:50:00;;;;;;;22.25;8.13;;;;;;;4.06;85.45;93627.84;5063379;28;20073;-81
2023/12/13 01:52:26;;;;;;;18.05;8.77;;;;;;;4.06;85.63;93619.13;5062240;28;20234;-82
2023/12/13 01:54:52;;;;;;;13.07;6.53;;;;;;;4.09;86.22;93615.94;5063298;28;20095;-80
2023/12/13 01:57:18;;;;;;;15.85;7.00;;;;;;;4.07;86.31;93602.22;5063213;28;20033;-81
2023/12/13 01:59:44;;;;;;;15.90;6.95;;;;;;;4.16;86.81;93601.34;5063438;28;20380;-81
2023/12/13 02:02:09;;;;;;;10.30;6.15;;;;;;;4.17;86.09;93604.78;5063248;28;20021;-81
2023/12/13 02:04:36;;;;;;;10.63;5.75;;;;;;;4.21;86.41;93601.31;5063654;28;20029;-78
2023/12/13 02:07:02;;;;;;;14.90;6.63;;;;;;;4.30;86.21;93600.72;5063184;28;20025;-79
2023/12/13 02:09:27;;;;;;;18.05;6.57;;;;;;;4.35;85.01;93603.28;5063510;28;20028;-79
2023/12/13 02:11:53;;;;;;;17.95;8.40;;;;;;;4.35;85.00;93590.09;5063150;28;20025;-78
2023/12/13 02:14:19;;;;;;;20.00;7.07;;;;;;;4.37;85.18;93582.69;5063285;28;20059;-78
2023/12/13 02:16:44;;;;;;;12.80;6.63;;;;;;;4.39;84.65;93591.09;5063025;28;20311;-79
2023/12/13 02:19:10;;;;;;;14.73;5.88;;;;;;;4.33;84.90;93565.84;5063165;28;20021;-79
2023/12/13 02:21:36;;;;;;;14.73;6.30;;;;;;;4.36;85.37;93555.50;5063227;28;20025;-80
2023/12/13 02:24:04;;;;;;;15.13;6.65;;;;;;;4.42;85.50;93561.53;5063012;28;20031;-80
2023/12/13 02:26:30;;;;;;;14.02;7.22;;;;;;;4.51;85.56;93572.25;5063059;28;20235;-80
2023/12/13 02:28:56;;;;;;;13.45;7.15;;;;;;;4.58;85.38;93575.31;5062968;28;20052;-80
2023/12/13 02:31:22;;;;;;;15.70;8.02;;;;;;;4.65;85.14;93573.13;5062993;28;20189;-80
2023/12/13 02:33:47;;;;;;;15.90;7.38;;;;;;;4.65;84.90;93569.72;5062920;28;20047;-78
2023/12/13 02:36:13;;;;;;;15.13;7.63;;;;;;;4.70;84.38;93570.44;5061538;28;20017;-77
2023/12/13 02:38:41;;;;;;;16.50;7.50;;;;;;;4.67;83.58;93573.63;5061662;28;20386;-81
2023/12/13 02:41:08;;;;;;;13.73;6.15;;;;;;;4.61;83.70;93551.78;5062844;28;20036;-79
2023/12/13 02:43:33;;;;;;;14.10;7.03;;;;;;;4.54;84.17;93524.97;5062811;28;20028;-81
2023/12/13 02:45:59;;;;;;;21.58;7.93;;;;;;;4.59;84.21;93527.53;5062795;28;20330;-80
2023/12/13 02:48:24;;;;;;;13.55;6.38;;;;;;;4.61;84.08;93535.94;5063327;28;20017;-81
2023/12/13 02:50:52;;;;;;;17.95;7.60;;;;;;;4.62;84.00;93545.44;5063039;28;20047;-81
2023/12/13 02:53:18;;;;;;;20.25;10.50;;;;;;;4.63;83.13;93554.16;5062768;28;20021;-81
2023/12/13 02:55:44;;;;;;;24.05;11.65;;;;;;;4.59;83.05;93547.88;5062836;28;20017;-80
2023/12/13 02:58:10;;;;;;;20.15;9.70;;;;;;;4.54;83.29;93550.53;5061883;28;20069;-81
2023/12/13 03:00:35;;;;;;;28.58;10.25;;;;;;;4.53;83.77;93552.41;5062970;28;20037;-81
2023/12/13 03:03:01;;;;;;;18.60;9.73;;;;;;;4.56;83.86;93554.50;5064936;28;20021;-80
2023/12/13 03:05:26;;;;;;;20.20;9.45;;;;;;;4.57;83.94;93550.78;5066611;28;20299;-79
2023/12/13 03:07:51;;;;;;;20.27;10.60;;;;;;;4.54;83.93;93545.28;5066413;28;20021;-81
2023/12/13 03:10:17;;;;;;;26.27;13.10;;;;;;;4.55;83.62;93555.56;5065669;28;20021;-81
2023/12/13 03:12:42;;;;;;;19.15;10.20;;;;;;;4.49;83.51;93543.47;5066772;28;20208;-80
2023/12/13 03:15:08;;;;;;;27.55;11.60;;;;;;;4.43;84.12;93539.34;5066733;28;20021;-80
2023/12/13 03:17:34;;;;;;;25.23;10.90;;;;;;;4.42;84.67;93543.06;5066406;28;20051;-79
2023/12/13 03:19:59;;;;;;;35.17;15.18;;;;;;;4.42;84.54;93554.38;5066567;28;20041;-79
2023/12/13 03:22:25;;;;;;;34.90;17.08;;;;;;;4.42;84.28;93553.59;5066182;28;20021;-77
2023/12/13 03:24:54;;;;;;;35.75;15.50;;;;;;;4.38;84.55;93560.53;5066038;28;20084;-77
2023/12/13 03:27:19;;;;;;;36.88;15.95;;;;;;;4.36;84.05;93557.38;5065917;28;20185;-77
2023/12/13 03:29:44;;;;;;;29.15;15.32;;;;;;;4.31;83.52;93581.94;5066031;28;20086;-77
2023/12/13 03:32:10;;;;;;;33.67;16.35;;;;;;;4.17;84.02;93587.13;5064846;28;20032;-77
2023/12/13 03:34:35;;;;;;;29.58;15.25;;;;;;;4.13;84.38;93578.19;5066143;28;20024;-77
2023/12/13 03:37:02;;;;;;;41.95;19.25;;;;;;;3.97;84.98;93567.00;5065929;28;20193;-76
2023/12/13 03:39:27;;;;;;;36.97;17.60;;;;;;;3.90;85.66;93560.47;5065943;28;20035;-77
2023/12/13 03:41:53;;;;;;;40.45;18.15;;;;;;;3.78;86.86;93572.16;5064965;28;20256;-78
2023/12/13 03:44:18;;;;;;;31.35;16.67;;;;;;;3.78;86.58;93574.00;5066048;28;20044;-77
2023/12/13 03:46:43;;;;;;;43.25;20.02;;;;;;;3.72;87.34;93575.91;5065679;28;20219;-77
2023/12/13 03:49:09;;;;;;;37.72;18.17;;;;;;;3.73;87.84;93577.50;5066036;28;20028;-78
2023/12/13 03:51:35;;;;;;;34.97;18.00;;;;;;;3.79;87.62;93563.19;5066054;28;20017;-77
2023/12/13 03:54:01;;;;;;;44.47;17.85;;;;;;;3.88;87.54;93586.31;5065905;28;20032;-79
2023/12/13 03:56:29;;;;;;;32.63;17.23;;;;;;;3.96;86.96;93583.09;5066065;28;20029;-78
2023/12/13 03:58:54;;;;;;;43.38;20.02;;;;;;;4.02;86.05;93553.75;5065927;28;20043;-78
2023/12/13 04:01:20;;;;;;;38.85;19.10;;;;;;;4.04;86.21;93556.13;5066024;28;20091;-78
2023/12/13 04:03:45;;;;;;;36.42;17.80;;;;;;;4.05;86.28;93560.34;5065890;28;20020;-78
2023/12/13 04:06:11;;;;;;;40.55;17.75;;;;;;;4.08;86.20;93559.75;5065565;28;20036;-80
2023/12/13 04:08:36;;;;;;;36.42;19.02;;;;;;;4.15;85.76;93556.78;5065746;28;20024;-79
2023/12/13 04:11:02;;;;;;;37.90;17.75;;;;;;;4.14;85.44;93553.38;5064298;28;20032;-79
2023/12/13 04:13:27;;;;;;;51.08;20.38;;;;;;;4.15;85.76;93546.25;5064537;28;20106;-79
2023/12/13 04:15:53;;;;;;;43.28;18.95;;;;;;;4.20;85.53;93546.97;5065426;28;20025;-78
2023/12/13 04:18:18;;;;;;;41.10;20.02;;;;;;;4.24;85.44;93549.06;5065179;28;20028;-77
2023/12/13 04:20:43;;;;;;;38.45;19.05;;;;;;;4.31;85.15;93544.22;5065357;28;20150;-78
2023/12/13 04:23:09;;;;;;;40.47;19.05;;;;;;;4.34;85.08;93538.41;5065434;28;20025;-77
2023/12/13 04:25:34;;;;;;;33.72;16.92;;;;;;;4.39;85.04;93527.78;5065180;28;20219;-78
2023/12/13 04:28:01;;;;;;;36.50;16.58;;;;;;;4.41;84.73;93526.41;5064998;28;20220;-78
2023/12/13 04:30:26;;;;;;;32.45;14.13;;;;;;;4.46;84.67;93511.59;5065505;28;20032;-80
2023/12/13 04:32:52;;;;;;;29.55;13.27;;;;;;;4.53;84.38;93519.97;5065349;28;20225;-80
2023/12/13 04:35:17;;;;;;;22.75;11.25;;;;;;;4.52;84.10;93511.25;5065586;28;20029;-80
2023/12/13 04:37:43;;;;;;;18.02;9.20;;;;;;;4.53;84.40;93507.53;5065230;28;20033;-80
2023/12/13 04:40:09;;;;;;;13.73;8.18;;;;;;;4.50;84.38;93507.31;5065261;28;20324;-81
2023/12/13 04:42:35;;;;;;;14.70;7.22;;;;;;;4.49;84.72;93517.09;5065142;28;20323;-80
2023/12/13 04:45:00;;;;;;;17.25;7.30;;;;;;;4.52;84.81;93513.91;5065286;28;20035;-80
2023/12/13 04:47:26;;;;;;;15.85;7.60;;;;;;;4.55;84.57;93499.34;5063585;28;20028;-80
2023/12/13 04:49:51;;;;;;;16.38;7.80;;;;;;;4.59;84.30;93493.22;5064784;28;20053;-80
2023/12/13 04:52:17;;;;;;;19.00;8.68;;;;;;;4.63;84.20;93478.38;5064761;28;20037;-77
2023/12/13 04:54:43;;;;;;;17.95;7.60;;;;;;;4.68;83.83;93495.22;5064630;28;20025;-78
2023/12/13 04:57:08;;;;;;;18.42;7.78;;;;;;;4.68;83.92;93500.50;5064633;28;20052;-78
2023/12/13 04:59:34;;;;;;;18.67;8.70;;;;;;;4.57;83.72;93490.06;5064457;28;20088;-78
2023/12/13 05:02:00;;;;;;;18.02;9.25;;;;;;;4.61;83.64;93499.00;5064846;28;20056;-78
2023/12/13 05:04:25;;;;;;;18.80;8.63;;;;;;;4.65;83.53;93509.00;5064745;28;20321;-78
2023/12/13 05:06:51;;;;;;;18.85;8.18;;;;;;;4.69;83.25;93520.56;5064315;28;20021;-78
2023/12/13 05:09:16;;;;;;;14.77;7.15;;;;;;;4.74;83.07;93512.56;5063189;28;20044;-78
2023/12/13 05:11:42;;;;;;;17.33;7.93;;;;;;;4.72;82.88;93481.19;5064059;28;20084;-77
2023/12/13 05:14:07;;;;;;;18.05;8.52;;;;;;;4.72;83.17;93472.44;5064344;28;20027;-77
2023/12/13 05:16:33;;;;;;;13.80;7.45;;;;;;;4.71;83.19;93461.13;5064077;28;20024;-80
2023/12/13 05:18:58;;;;;;;18.42;8.15;;;;;;;4.73;82.93;93464.25;5064039;28;20021;-79
2023/12/13 05:21:24;;;;;;;15.18;7.30;;;;;;;4.75;82.97;93441.00;5064110;28;20033;-79
2023/12/13 05:23:49;;;;;;;18.00;8.73;;;;;;;4.65;82.76;93462.25;5063009;28;20372;-78
2023/12/13 05:26:15;;;;;;;23.67;10.35;;;;;;;4.61;82.42;93466.53;5063515;28;20064;-78
2023/12/13 05:28:40;;;;;;;21.83;9.55;;;;;;;4.50;82.62;93487.00;5064017;28;20037;-77
2023/12/13 05:31:06;;;;;;;20.35;9.32;;;;;;;4.14;83.48;93492.69;5063548;28;20033;-77
2023/12/13 05:33:31;;;;;;;23.90;10.85;;;;;;;3.90;84.70;93484.78;5063689;28;20064;-78
2023/12/13 05:35:57;;;;;;;20.63;10.25;;;;;;;3.80;86.13;93490.94;5063658;28;20330;-77
2023/12/13 05:38:22;;;;;;;23.48;9.23;;;;;;;3.82;87.17;93490.66;5063579;28;20025;-77
2023/12/13 05:40:48;;;;;;;18.08;8.00;;;;;;;3.82;87.39;93488.03;5063812;28;20025;-77
2023/12/13 05:43:13;;;;;;;17.67;9.02;;;;;;;3.81;87.95;93487.25;5063531;28;20044;-77
2023/12/13 05:45:38;;;;;;;23.38;10.63;;;;;;;3.90;88.29;93489.28;5063807;28;20261;-77
2023/12/13 05:48:05;;;;;;;22.58;12.15;;;;;;;3.96;87.45;93485.53;5062308;28;20258;-77
2023/12/13 05:50:30;;;;;;;19.27;9.50;;;;;;;3.99;87.17;93495.53;5063789;28;20037;-77
2023/12/13 05:52:56;;;;;;;27.63;11.43;;;;;;;4.02;87.16;93502.88;5063187;28;20070;-77
2023/12/13 05:55:21;;;;;;;19.75;10.18;;;;;;;3.93;86.59;93507.97;5063803;28;20044;-76
2023/12/13 05:57:47;;;;;;;17.40;8.77;;;;;;;3.84;87.10;93499.09;5063443;28;20335;-76
2023/12/13 06:00:13;;;;;;;17.02;9.02;;;;;;;3.84;87.49;93508.84;5063096;28;20028;-81
2023/12/13 06:02:39;;;;;;;18.95;10.88;;;;;;;3.92;87.89;93487.16;5064324;28;20029;-79
2023/12/13 06:05:04;;;;;;;25.13;13.20;;;;;;;3.93;88.05;93475.53;5064142;28;20405;-79
2023/12/13 06:07:30;;;;;;;39.47;19.60;;;;;;;3.97;88.24;93469.44;5064166;28;20040;-81
2023/12/13 06:09:56;;;;;;;48.65;22.30;;;;;;;4.09;87.90;93471.69;5064189;28;20036;-82
2023/12/13 06:12:21;;;;;;;51.38;24.13;;;;;;;4.22;87.40;93484.16;5064214;28;20021;-82
2023/12/13 06:14:47;;;;;;;48.80;21.65;;;;;;;4.34;86.65;93498.81;5064040;28;20089;-81
2023/12/13 06:17:13;;;;;;;35.00;18.45;;;;;;;4.35;86.36;93490.59;5062895;28;20361;-81
2023/12/13 06:19:39;;;;;;;38.95;18.80;;;;;;;4.40;86.48;93489.78;5064032;28;20025;-80
2023/12/13 06:22:07;;;;;;;35.92;17.08;;;;;;;4.50;86.22;93465.09;5062052;28;20266;-81
2023/12/13 06:24:32;;;;;;;29.90;15.57;;;;;;;4.58;86.20;93453.88;5061813;28;20096;-81
2023/12/13 06:26:58;;;;;;;29.20;13.93;;;;;;;4.69;86.03;93457.19;5061776;28;20025;-74
2023/12/13 06:29:23;;;;;;;29.50;14.57;;;;;;;4.78;85.79;93455.47;5062217;28;20107;-77
2023/12/13 06:31:49;;;;;;;33.47;16.92;;;;;;;4.92;84.68;93456.31;5062459;28;20017;-76
2023/12/13 06:34:14;;;;;;;39.13;19.73;;;;;;;4.89;85.06;93448.19;5062819;28;20033;-77
2023/12/13 06:36:40;;;;;;;34.15;18.63;;;;;;;4.91;84.77;93456.63;5060625;28;20013;-77
2023/12/13 06:39:07;;;;;;;42.58;16.83;;;;;;;4.93;84.67;93463.19;5061823;28;20283;-77
2023/12/13 06:41:33;;;;;;;22.63;11.68;;;;;;;4.95;84.86;93445.19;5063114;28;20031;-78
2023/12/13 06:44:00;;;;;;;19.02;10.02;;;;;;;4.98;84.28;93441.97;5063756;28;20032;-78
2023/12/13 06:46:25;;;;;;;19.80;9.98;;;;;;;4.92;84.63;93437.06;5062887;28;20031;-78
2023/12/13 06:48:53;;;;;;;16.52;9.30;;;;;;;4.92;85.89;93435.19;5063476;28;20025;-79
2023/12/13 06:51:19;;;;;;;19.42;10.45;;;;;;;4.99;85.25;93427.69;5063267;28;20051;-77
2023/12/13 06:53:44;;;;;;;21.33;10.95;;;;;;;5.10;85.29;93427.53;5063352;28;20021;-78
2023/12/13 06:56:10;;;;;;;24.40;13.93;;;;;;;5.19;84.79;93426.59;5062942;28;20013;-78
2023/12/13 06:58:35;;;;;;;29.20;13.82;;;;;;;5.27;83.56;93430.44;5062860;28;20108;-79
2023/12/13 07:01:01;;;;;;;33.70;13.25;;;;;;;5.26;83.12;93436.78;5062729;28;20027;-78
2023/12/13 07:03:26;;;;;;;27.38;13.23;;;;;;;5.17;82.95;93441.94;5062214;28;20199;-78
2023/12/13 07:05:53;;;;;;;24.73;12.73;;;;;;;5.12;83.65;93449.94;5062864;28;20016;-78
2023/12/13 07:08:18;;;;;;;29.17;13.75;;;;;;;5.16;83.97;93450.16;5062618;28;20028;-77
2023/12/13 07:10:44;;;;;;;31.48;15.32;;;;;;;5.21;83.92;93436.84;5062569;28;20021;-77
2023/12/13 07:13:09;;;;;;;33.22;16.63;;;;;;;5.23;83.63;93442.63;5062982;28;20072;-76
2023/12/13 07:15:35;;;;;;;36.05;16.88;;;;;;;5.28;83.48;93441.78;5063147;28;20226;-76
2023/12/13 07:18:00;;;;;;;33.35;16.40;;;;;;;5.24;83.44;93446.84;5062764;28;20216;-77
2023/12/13 07:20:26;;;;;;;31.80;15.75;;;;;;;5.23;83.89;93443.44;5062911;28;20219;-78
2023/12/13 07:22:51;;;;;;;36.08;18.48;;;;;;;5.26;84.04;93444.72;5062803;28;20029;-79
2023/12/13 07:25:17;;;;;;;33.28;17.30;;;;;;;5.27;84.20;93424.34;5062941;28;20028;-78
2023/12/13 07:27:42;;;;;;;40.50;18.40;;;;;;;5.31;84.39;93427.97;5061870;28;20071;-78
2023/12/13 07:30:08;;;;;;;29.40;15.10;;;;;;;5.32;84.06;93440.91;5062901;28;20021;-78
2023/12/13 07:32:34;;;;;;;27.55;14.18;;;;;;;5.32;84.09;93432.19;5063098;28;20199;-78
2023/12/13 07:34:59;;;;;;;28.52;15.23;;;;;;;5.38;83.31;93447.66;5062700;28;20036;-77
2023/12/13 07:37:25;;;;;;;27.20;14.80;;;;;;;5.46;83.00;93422.44;5062709;28;20017;-77
2023/12/13 07:39:50;;;;;;;32.60;15.20;;;;;;;5.26;84.15;93418.28;5062690;28;20020;-77
2023/12/13 07:42:16;;;;;;;35.85;17.52;;;;;;;5.39;83.68;93428.09;5062885;28;20021;-77
2023/12/13 07:44:43;;;;;;;35.20;16.63;;;;;;;5.54;83.53;93426.28;5062672;28;20021;-79
2023/12/13 07:47:08;;;;;;;25.05;13.18;;;;;;;5.58;82.84;93409.53;5062802;28;20090;-78
2023/12/13 07:49:34;;;;;;;25.88;14.18;;;;;;;5.72;83.07;93425.41;5063878;28;20223;-77
2023/12/13 07:51:59;;;;;;;35.08;18.50;;;;;;;5.94;82.51;93410.72;5065869;28;20063;-77
2023/12/13 07:54:25;;;;;;;42.60;22.45;;;;;;;6.04;81.92;93431.72;5065735;28;20024;-77
2023/12/13 07:56:52;;;;;;;51.60;21.23;;;;;;;6.07;81.75;93428.47;5066108;28;20009;-75
2023/12/13 07:59:18;;;;;;;41.80;20.42;;;;;;;6.09;80.56;93421.03;5065706;28;20246;-76
2023/12/13 08:01:43;;;;;;;46.53;20.25;;;;;;;6.10;80.42;93435.81;5065629;28;20051;-75
2023/12/13 08:04:09;;;;;;;41.78;18.98;;;;;;;6.17;79.97;93444.16;5065696;28;20021;-76
2023/12/13 08:06:34;;;;;;;33.85;19.10;;;;;;;6.15;79.72;93451.59;5066056;28;20025;-74
2023/12/13 08:09:01;;;;;;;34.67;19.30;;;;;;;6.14;79.56;93451.91;5065717;28;20021;-75
2023/12/13 08:11:26;;;;;;;38.20;19.38;;;;;;;6.09;79.63;93434.25;5065706;28;20079;-74
2023/12/13 08:13:52;;;;;;;40.38;20.23;;;;;;;6.13;79.87;93440.53;5065538;28;20304;-74
2023/12/13 08:16:18;;;;;;;37.97;19.17;;;;;;;6.18;79.75;93442.28;5065511;28;20224;-75
2023/12/13 08:18:44;;;;;;;45.35;21.75;;;;;;;6.20;80.33;93418.97;5064272;28;20063;-75
2023/12/13 08:21:09;;;;;;;45.72;22.05;;;;;;;6.23;80.42;93408.56;5065688;28;20035;-74
2023/12/13 08:23:35;;;;;;;37.25;20.50;;;;;;;6.34;80.53;93398.56;5065542;28;20024;-75
2023/12/13 08:26:00;;;;;;;47.70;22.30;;;;;;;6.40;79.82;93401.88;5065367;28;20088;-75
2023/12/13 08:28:26;;;;;;;54.60;23.77;;;;;;;6.49;79.98;93410.66;5064754;28;20252;-74
2023/12/13 08:30:51;;;;;;;45.80;23.05;;;;;;;6.63;79.28;93426.53;5065399;28;20131;-74
2023/12/13 08:33:17;;;;;;;47.45;23.25;;;;;;;6.57;79.26;93406.53;5064079;28;20021;-74
2023/12/13 08:35:43;;;;;;;40.65;20.25;;;;;;;6.60;77.78;93427.91;5065474;28;20028;-74
2023/12/13 08:38:08;;;;;;;45.70;21.35;;;;;;;6.59;77.84;93410.47;5065055;28;20025;-74
2023/12/13 08:40:34;;;;;;;41.15;20.55;;;;;;;6.66;78.43;93420.66;5065011;28;20331;-75
2023/12/13 08:42:59;;;;;;;42.83;20.52;;;;;;;6.71;78.44;93430.34;5065072;28;20024;-75
2023/12/13 08:45:25;;;;;;;43.72;19.92;;;;;;;6.82;78.61;93429.03;5065109;28;20279;-74
2023/12/13 08:47:51;;;;;;;42.63;22.30;;;;;;;6.94;77.62;93445.19;5064803;28;20090;-74
2023/12/13 08:50:16;;;;;;;39.83;19.75;;;;;;;6.90;77.43;93430.97;5065007;28;20032;-73
2023/12/13 08:52:42;;;;;;;38.83;19.27;;;;;;;6.79;76.79;93438.34;5063924;28;20024;-74
2023/12/13 08:55:10;;;;;;;51.83;21.90;;;;;;;6.71;77.53;93443.59;5065240;28;20037;-74
2023/12/13 08:57:36;;;;;;;36.83;21.08;;;;;;;6.74;77.63;93421.81;5064863;28;20072;-74
2023/12/13 09:00:06;;;;;;;51.40;21.45;;;;;;;6.71;76.96;93438.28;5062913;28;20208;-74
2023/12/13 09:02:32;;;;;;;46.33;22.13;;;;;;;6.77;76.42;93435.22;5064854;28;20204;-74
2023/12/13 09:04:57;;;;;;;50.72;23.92;;;;;;;6.80;76.40;93436.50;5064765;28;20068;-73
2023/12/13 09:07:23;;;;;;;47.92;22.63;;;;;;;6.77;76.72;93416.66;5064334;28;20075;-73
2023/12/13 09:09:48;;;;;;;46.95;21.10;;;;;;;6.85;76.09;93401.94;5064662;28;20239;-74
2023/12/13 09:12:14;;;;;;;41.60;22.20;;;;;;;6.93;75.75;93406.50;5063610;28;20032;-75
2023/12/13 09:14:40;;;;;;;42.58;21.52;;;;;;;7.00;75.89;93404.25;5064546;28;20051;-74
2023/12/13 09:17:05;;;;;;;45.30;22.38;;;;;;;7.10;75.25;93397.13;5064224;28;20036;-74
2023/12/13 09:19:31;;;;;;;48.90;21.95;;;;;;;7.19;75.32;93384.72;5064142;28;20086;-74
2023/12/13 09:21:57;;;;;;;41.42;21.67;;;;;;;7.27;74.86;93383.22;5064417;28;20229;-74
2023/12/13 09:24:22;;;;;;;41.03;21.13;;;;;;;7.33;74.47;93374.03;5064147;28;20186;-74
2023/12/13 09:26:49;;;;;;;43.70;21.70;;;;;;;7.30;74.84;93380.72;5063556;28;20058;-74
2023/12/13 09:29:14;;;;;;;43.70;21.67;;;;;;;7.48;75.14;93375.50;5064229;28;20391;-73
2023/12/13 09:31:40;;;;;;;42.75;21.35;;;;;;;7.60;74.82;93367.75;5064337;28;20040;-73
2023/12/13 09:34:06;;;;;;;40.10;20.70;;;;;;;7.78;73.32;93353.47;5064269;28;20020;-73
2023/12/13 09:36:31;;;;;;;39.80;19.23;;;;;;;7.82;72.02;93354.44;5063821;28;20023;-74
2023/12/13 09:38:57;;;;;;;46.13;19.70;;;;;;;7.92;72.24;93371.94;5063745;28;20300;-74
2023/12/13 09:41:35;;;;;;;38.13;18.70;;;;;;;7.95;71.45;93402.38;5062561;28;20020;-74
2023/12/13 09:44:00;;;;;;;34.58;15.57;;;;;;;7.97;70.02;93400.97;5063991;28;20041;-73
2023/12/13 09:46:27;;;;;;;35.38;18.05;;;;;;;8.07;70.33;93367.31;5063691;28;20033;-73
2023/12/13 09:48:54;;;;;;;30.92;15.40;;;;;;;8.15;70.53;93356.69;5063887;28;20139;-74
2023/12/13 09:51:21;;;;;;;37.20;17.10;;;;;;;8.31;69.66;93359.69;5063882;28;20051;-73
2023/12/13 09:53:49;;;;;;;42.80;19.25;;;;;;;8.44;69.73;93347.38;5063772;28;20200;-74
2023/12/13 09:56:15;;;;;;;42.65;17.38;;;;;;;8.60;69.38;93353.03;5063775;28;20017;-74
2023/12/13 09:58:40;;;;;;;30.10;14.15;;;;;;;8.79;66.79;93332.25;5063181;28;20051;-74
2023/12/13 10:01:16;;;;;;;33.22;13.85;;;;;;;8.84;65.31;93337.38;5063677;28;20096;-73
2023/12/13 10:03:42;;;;;;;34.03;14.05;;;;;;;8.96;65.40;93342.06;5063830;28;20024;-74
2023/12/13 10:06:07;;;;;;;27.50;13.18;;;;;;;9.13;65.04;93329.84;5063852;28;20077;-74
2023/12/13 10:08:35;;;;;;;39.65;14.30;;;;;;;9.31;63.50;93320.72;5063624;28;20032;-84
2023/12/13 10:11:02;;;;;;;26.52;13.00;;;;;;;9.41;63.53;93301.75;5063554;28;20039;-77
2023/12/13 10:13:27;;;;;;;34.53;13.75;;;;;;;9.39;63.01;93303.94;5063574;28;20020;-86
2023/12/13 10:15:53;;;;;;;37.58;14.73;;;;;;;9.54;62.90;93307.19;5064183;28;20386;-81
2023/12/13 10:18:18;;;;;;;38.95;16.77;;;;;;;9.59;63.39;93291.06;5065291;28;20025;-83
2023/12/13 10:20:47;;;;;;;41.30;16.23;;;;;;;9.68;63.42;93289.13;5065010;28;20055;-82
2023/12/13 10:23:13;;;;;;;34.55;15.32;;;;;;;9.83;63.10;93272.59;5064078;28;20302;-83
2023/12/13 10:25:39;;;;;;;33.92;15.80;;;;;;;10.01;62.61;93272.47;5064750;28;20032;-84
2023/12/13 10:28:05;;;;;;;33.95;14.85;;;;;;;10.17;61.39;93265.47;5064203;28;20035;-83
2023/12/13 10:30:32;;;;;;;33.95;14.32;;;;;;;10.27;61.08;93259.00;5063853;28;20068;-82
2023/12/13 10:32:58;;;;;;;31.58;14.13;;;;;;;9.56;61.22;93236.56;5063482;28;20029;-82
2023/12/13 10:35:24;;;;;;;42.22;16.42;;;;;;;9.66;62.05;93240.75;5063488;28;20261;-83
2023/12/13 10:37:51;;;;;;;40.30;15.27;;;;;;;9.60;62.88;93248.13;5064762;28;20028;-82
2023/12/13 10:40:17;;;;;;;42.38;15.75;;;;;;;9.68;62.09;93243.09;5063475;28;20027;-83
2023/12/13 10:42:48;;;;;;;34.60;14.30;;;;;;;9.63;61.78;93236.09;5063868;28;20059;-83
2023/12/13 10:45:15;;;;;;;40.58;16.27;;;;;;;9.71;62.14;93237.94;5063378;28;20139;-83
2023/12/13 10:47:44;;;;;;;46.17;15.68;;;;;;;9.51;62.57;93230.69;5063445;28;20029;-83
2023/12/13 10:50:11;;;;;;;44.50;14.85;;;;;;;9.50;62.60;93232.53;5063622;28;20021;-83
2023/12/13 10:52:38;;;;;;;31.40;14.65;;;;;;;9.25;62.76;93236.88;5064263;28;20037;-83
2023/12/13 10:55:08;;;;;;;36.60;14.40;;;;;;;9.25;62.88;93234.22;5063281;28;20152;-83
2023/12/13 10:57:36;;;;;;;34.47;13.57;;;;;;;9.24;62.98;93224.72;5063189;28;20923;-83
2023/12/13 11:00:03;;;;;;;42.05;15.50;;;;;;;9.18;62.84;93232.06;5063066;28;20096;-84
2023/12/13 11:02:37;;;;;;;31.50;13.50;;;;;;;9.08;62.92;93242.25;5063846;28;20032;-83
2023/12/13 11:05:04;;;;;;;29.52;15.25;;;;;;;8.86;64.06;93224.69;5064446;28;20025;-84
2023/12/13 11:07:29;;;;;;;36.88;14.82;;;;;;;8.86;64.87;93211.41;5063331;28;20357;-83
2023/12/13 11:09:54;;;;;;;34.15;14.75;;;;;;;8.94;64.70;93222.00;5063502;28;20052;-83
2023/12/13 11:12:20;;;;;;;29.83;15.90;;;;;;;9.04;64.23;93236.81;5064294;28;20071;-83
2023/12/13 11:14:52;;;;;;;30.45;15.43;;;;;;;9.10;63.93;93232.09;5063467;28;20029;-83
2023/12/13 11:17:19;;;;;;;;;;;;;;;9.12;64.41;93205.97;5063561;28;20024;-85
2023/12/13 11:19:45;;;;;;;34.80;15.48;;;;;;;9.06;64.29;93208.03;5061664;28;19913;-86